Time;durP1;ratioP1;P1;durP2;ratioP2;P2;SDS_P1;SDS_P2;PMS_P1;PMS_P2;Temp;Humidity;BMP_temperature;BMP_pressure;BME280_temperature;BME280_humidity;BME280_pressure;Samples;Min_cycle;Max_cycle;Signal;HPM_P1;HPM_P2
2024/01/21 00:01:20;;;;;;;17.98;10.77;;;;;;;;;;4945768;28;20129;-70
2024/01/21 00:03:46;;;;;;;19.25;10.75;;;;;;;;;;4954672;28;20043;-70
2024/01/21 00:06:12;;;;;;;19.13;10.60;;;;;;;;;;4952288;28;20055;-70
2024/01/21 00:08:38;;;;;;;17.77;10.43;;;;;;;;;;4952813;28;20073;-70
2024/01/21 00:11:04;;;;;;;19.23;9.95;;;;;;;;;;4952492;28;20077;-70
2024/01/21 00:13:30;;;;;;;17.17;10.20;;;;;;;;;;4947977;28;20493;-70
2024/01/21 00:15:56;;;;;;;17.50;10.23;;;;;;;;;;4952617;28;20154;-70
2024/01/21 00:18:22;;;;;;;18.67;9.38;;;;;;;;;;4947607;28;20529;-70
2024/01/21 00:20:48;;;;;;;21.80;10.32;;;;;;;;;;4958667;28;20038;-69
2024/01/21 00:23:14;;;;;;;17.92;9.77;;;;;;;;;;4953893;28;20097;-69
2024/01/21 00:25:40;;;;;;;20.13;10.60;;;;;;;;;;4952566;28;20328;-69
2024/01/21 00:28:06;;;;;;;17.63;9.93;;;;;;;;;;4951582;28;20129;-69
2024/01/21 00:30:32;;;;;;;17.60;10.23;;;;;;;;;;4951612;28;20485;-69
2024/01/21 00:32:58;;;;;;;17.35;10.30;;;;;;;;;;4952135;28;20057;-69
2024/01/21 00:35:24;;;;;;;16.70;9.30;;;;;;;;;;4959410;28;20074;-69
2024/01/21 00:37:50;;;;;;;18.30;9.75;;;;;;;;;;4962381;28;20042;-69
2024/01/21 00:40:17;;;;;;;19.30;9.70;;;;;;;;;;4952025;28;20053;-69
2024/01/21 00:42:43;;;;;;;16.20;9.23;;;;;;;;;;4948217;29;20052;-70
2024/01/21 00:45:09;;;;;;;17.33;9.30;;;;;;;;;;4935959;28;20513;-70
2024/01/21 00:47:35;;;;;;;14.73;9.18;;;;;;;;;;4952147;28;20035;-70
2024/01/21 00:50:03;;;;;;;15.63;9.00;;;;;;;;;;4951175;28;20047;-70
2024/01/21 00:52:29;;;;;;;16.98;9.30;;;;;;;;;;4951380;28;20069;-70
2024/01/21 00:54:55;;;;;;;17.05;8.75;;;;;;;;;;4951682;28;20493;-70
2024/01/21 00:57:21;;;;;;;17.38;9.60;;;;;;;;;;4952802;28;20123;-70
2024/01/21 00:59:47;;;;;;;13.48;8.60;;;;;;;;;;4967393;28;20042;-69
2024/01/21 01:02:13;;;;;;;16.83;8.50;;;;;;;;;;4959195;28;20038;-69
2024/01/21 01:04:39;;;;;;;15.38;8.90;;;;;;;;;;4951267;28;20607;-69
2024/01/21 01:07:05;;;;;;;15.90;9.05;;;;;;;;;;4950898;28;20421;-69
2024/01/21 01:09:31;;;;;;;16.90;8.98;;;;;;;;;;4951081;28;20039;-69
2024/01/21 01:11:58;;;;;;;16.40;9.40;;;;;;;;;;4952061;28;20370;-69
2024/01/21 01:14:24;;;;;;;14.75;8.80;;;;;;;;;;4960014;28;20421;-69
2024/01/21 01:16:50;;;;;;;18.63;9.07;;;;;;;;;;4967583;28;20057;-69
2024/01/21 01:19:16;;;;;;;16.33;8.43;;;;;;;;;;4951019;28;20047;-69
2024/01/21 01:21:42;;;;;;;17.90;9.15;;;;;;;;;;4954038;28;20042;-69
2024/01/21 01:24:08;;;;;;;15.77;9.77;;;;;;;;;;4966294;28;20042;-69
2024/01/21 01:26:34;;;;;;;15.07;8.70;;;;;;;;;;4957404;28;20039;-69
2024/01/21 01:29:00;;;;;;;20.08;9.65;;;;;;;;;;4950907;28;20046;-69
2024/01/21 01:31:26;;;;;;;13.07;8.40;;;;;;;;;;4967309;28;20116;-69
2024/01/21 01:33:52;;;;;;;16.05;8.32;;;;;;;;;;4942925;29;20097;-69
2024/01/21 01:36:18;;;;;;;16.15;9.20;;;;;;;;;;4932427;29;20035;-69
2024/01/21 01:38:44;;;;;;;18.05;8.65;;;;;;;;;;4956998;28;20147;-69
2024/01/21 01:41:10;;;;;;;15.02;8.32;;;;;;;;;;4966638;28;20070;-69
2024/01/21 01:43:36;;;;;;;14.50;8.25;;;;;;;;;;4950510;28;20050;-69
2024/01/21 01:46:03;;;;;;;12.95;7.55;;;;;;;;;;4950929;28;20039;-69
2024/01/21 01:48:31;;;;;;;13.75;7.35;;;;;;;;;;4950622;28;20026;-69
2024/01/21 01:50:59;;;;;;;13.05;7.70;;;;;;;;;;4950847;28;20120;-69
2024/01/21 01:53:25;;;;;;;14.05;7.82;;;;;;;;;;4982122;28;20049;-69
2024/01/21 01:55:51;;;;;;;14.80;7.35;;;;;;;;;;4951472;28;20568;-70
2024/01/21 01:58:18;;;;;;;14.80;7.70;;;;;;;;;;4957892;28;20515;-70
2024/01/21 02:00:45;;;;;;;13.50;7.40;;;;;;;;;;4966210;28;20043;-70
2024/01/21 02:03:11;;;;;;;14.43;6.97;;;;;;;;;;4966280;28;20105;-70
2024/01/21 02:05:37;;;;;;;11.82;6.85;;;;;;;;;;4964970;28;20053;-70
2024/01/21 02:08:04;;;;;;;13.57;7.22;;;;;;;;;;4950918;28;20043;-70
2024/01/21 02:10:30;;;;;;;13.73;7.40;;;;;;;;;;4958736;28;20054;-70
2024/01/21 02:12:56;;;;;;;10.63;6.00;;;;;;;;;;4954655;28;20530;-70
2024/01/21 02:15:23;;;;;;;12.27;6.88;;;;;;;;;;4965785;28;20129;-70
2024/01/21 02:17:49;;;;;;;13.25;6.60;;;;;;;;;;4963647;28;20194;-70
2024/01/21 02:20:16;;;;;;;12.50;6.07;;;;;;;;;;4949962;28;20053;-70
2024/01/21 02:22:42;;;;;;;12.40;5.95;;;;;;;;;;4960435;28;20039;-70
2024/01/21 02:25:08;;;;;;;9.40;5.70;;;;;;;;;;4949793;28;20208;-70
2024/01/21 02:27:35;;;;;;;11.70;5.75;;;;;;;;;;4931643;29;20043;-70
2024/01/21 02:30:01;;;;;;;10.43;5.30;;;;;;;;;;4938146;28;20105;-70
2024/01/21 02:32:27;;;;;;;12.82;5.75;;;;;;;;;;4950520;28;20046;-69
2024/01/21 02:34:53;;;;;;;8.20;4.82;;;;;;;;;;4950502;28;20688;-69
2024/01/21 02:37:19;;;;;;;8.60;4.63;;;;;;;;;;4949861;28;20133;-69
2024/01/21 02:39:45;;;;;;;9.07;4.85;;;;;;;;;;4950193;28;20129;-69
2024/01/21 02:42:11;;;;;;;11.10;4.80;;;;;;;;;;4966680;28;20430;-69
2024/01/21 02:44:37;;;;;;;7.47;4.65;;;;;;;;;;4965545;28;20207;-69
2024/01/21 02:47:04;;;;;;;11.18;5.10;;;;;;;;;;4955002;28;20035;-69
2024/01/21 02:49:30;;;;;;;10.07;5.00;;;;;;;;;;4949985;28;20078;-69
2024/01/21 02:51:56;;;;;;;10.73;4.97;;;;;;;;;;4969432;28;20081;-69
2024/01/21 02:54:22;;;;;;;8.45;4.32;;;;;;;;;;4969226;28;20056;-69
2024/01/21 02:56:48;;;;;;;8.65;4.57;;;;;;;;;;4969864;28;20130;-69
2024/01/21 02:59:14;;;;;;;8.32;4.00;;;;;;;;;;4953286;28;20505;-69
2024/01/21 03:01:41;;;;;;;7.97;4.70;;;;;;;;;;4970532;28;20513;-69
2024/01/21 03:04:10;;;;;;;9.98;4.45;;;;;;;;;;4969323;28;20442;-69
2024/01/21 03:06:36;;;;;;;7.50;4.20;;;;;;;;;;4962240;28;20077;-69
2024/01/21 03:09:01;;;;;;;10.10;4.15;;;;;;;;;;4960175;28;20514;-69
2024/01/21 03:11:27;;;;;;;6.70;3.90;;;;;;;;;;4953498;28;20097;-69
2024/01/21 03:13:53;;;;;;;6.43;4.07;;;;;;;;;;4953466;28;20048;-69
2024/01/21 03:16:19;;;;;;;7.75;3.95;;;;;;;;;;4953110;28;20438;-69
2024/01/21 03:18:45;;;;;;;8.95;3.53;;;;;;;;;;4953194;28;20415;-69
2024/01/21 03:21:11;;;;;;;10.52;3.67;;;;;;;;;;4953225;28;20089;-69
2024/01/21 03:23:37;;;;;;;7.38;3.63;;;;;;;;;;4953389;28;20042;-69
2024/01/21 03:26:03;;;;;;;4.97;3.38;;;;;;;;;;4955784;28;20057;-69
2024/01/21 03:28:29;;;;;;;7.63;3.65;;;;;;;;;;4969504;28;20078;-69
2024/01/21 03:30:55;;;;;;;5.85;3.05;;;;;;;;;;4959235;28;20093;-69
2024/01/21 03:33:22;;;;;;;7.97;3.28;;;;;;;;;;4953619;28;20050;-69
2024/01/21 03:35:47;;;;;;;5.95;3.10;;;;;;;;;;4952532;28;20038;-69
2024/01/21 03:38:14;;;;;;;6.45;3.78;;;;;;;;;;4953500;28;20117;-69
2024/01/21 03:40:40;;;;;;;6.88;3.42;;;;;;;;;;4952548;28;20272;-69
2024/01/21 03:43:06;;;;;;;5.78;3.17;;;;;;;;;;4953171;28;20375;-69
2024/01/21 03:45:32;;;;;;;6.22;2.92;;;;;;;;;;4952593;28;20038;-69
2024/01/21 03:47:58;;;;;;;5.82;3.15;;;;;;;;;;4969141;28;20046;-69
2024/01/21 03:50:24;;;;;;;5.55;3.15;;;;;;;;;;4953681;28;20412;-69
2024/01/21 03:52:50;;;;;;;4.78;2.85;;;;;;;;;;4953339;28;20454;-70
2024/01/21 03:55:16;;;;;;;6.80;3.10;;;;;;;;;;4951940;28;20039;-70
2024/01/21 03:57:43;;;;;;;7.10;3.35;;;;;;;;;;4953170;28;20047;-70
2024/01/21 04:00:09;;;;;;;6.32;3.17;;;;;;;;;;4968312;28;20034;-70
2024/01/21 04:02:36;;;;;;;6.30;3.35;;;;;;;;;;4962987;28;20061;-70
2024/01/21 04:05:03;;;;;;;6.72;2.78;;;;;;;;;;4952589;28;20065;-70
2024/01/21 04:07:29;;;;;;;6.10;3.10;;;;;;;;;;4971569;28;20275;-70
2024/01/21 04:09:55;;;;;;;5.55;2.88;;;;;;;;;;4952266;28;20039;-70
2024/01/21 04:12:21;;;;;;;3.95;2.33;;;;;;;;;;4969704;28;20420;-70
2024/01/21 04:14:47;;;;;;;4.88;2.80;;;;;;;;;;4952207;28;20038;-70
2024/01/21 04:17:13;;;;;;;5.50;2.88;;;;;;;;;;4952436;28;20043;-70
2024/01/21 04:19:39;;;;;;;5.30;2.92;;;;;;;;;;4965671;28;20054;-70
2024/01/21 04:22:05;;;;;;;4.95;2.58;;;;;;;;;;4954252;28;20034;-69
2024/01/21 04:24:31;;;;;;;5.40;2.60;;;;;;;;;;4952056;28;20035;-69
2024/01/21 04:26:57;;;;;;;4.70;3.05;;;;;;;;;;4951853;28;20042;-69
2024/01/21 04:29:23;;;;;;;6.22;2.38;;;;;;;;;;4952163;28;20050;-69
2024/01/21 04:31:49;;;;;;;3.90;2.40;;;;;;;;;;4951712;28;20133;-69
2024/01/21 04:34:15;;;;;;;4.63;2.17;;;;;;;;;;4954663;28;20198;-69
2024/01/21 04:36:41;;;;;;;6.70;2.70;;;;;;;;;;4967377;28;20047;-69
2024/01/21 04:39:07;;;;;;;4.47;2.40;;;;;;;;;;4967667;28;20494;-69
2024/01/21 04:41:33;;;;;;;6.03;2.50;;;;;;;;;;4967661;28;20039;-69
2024/01/21 04:43:59;;;;;;;4.78;2.45;;;;;;;;;;4968020;28;20058;-69
2024/01/21 04:46:25;;;;;;;8.60;2.70;;;;;;;;;;4967000;28;20398;-69
2024/01/21 04:48:52;;;;;;;5.80;2.30;;;;;;;;;;4965658;28;20039;-69
2024/01/21 04:51:18;;;;;;;4.82;2.30;;;;;;;;;;4951523;28;20142;-69
2024/01/21 04:53:44;;;;;;;4.95;2.60;;;;;;;;;;4951404;28;20047;-69
2024/01/21 04:56:17;;;;;;;5.70;2.47;;;;;;;;;;4931953;29;20047;-69
2024/01/21 04:58:43;;;;;;;3.97;2.55;;;;;;;;;;4956570;28;20583;-69
2024/01/21 05:01:10;;;;;;;4.80;2.28;;;;;;;;;;4951452;28;20050;-69
2024/01/21 05:03:36;;;;;;;5.88;2.65;;;;;;;;;;4962980;28;20089;-69
2024/01/21 05:06:03;;;;;;;3.60;2.30;;;;;;;;;;4967086;28;20508;-69
2024/01/21 05:08:29;;;;;;;5.97;2.40;;;;;;;;;;4978560;28;20316;-69
2024/01/21 05:10:55;;;;;;;3.25;1.92;;;;;;;;;;4951159;28;20054;-69
2024/01/21 05:13:21;;;;;;;6.70;3.05;;;;;;;;;;4950664;28;20035;-69
2024/01/21 05:15:47;;;;;;;6.13;2.58;;;;;;;;;;4950842;28;20050;-69
2024/01/21 05:18:13;;;;;;;5.65;2.85;;;;;;;;;;4950691;28;20042;-69
2024/01/21 05:20:39;;;;;;;5.03;2.97;;;;;;;;;;4964402;28;20422;-69
2024/01/21 05:23:05;;;;;;;5.93;2.42;;;;;;;;;;4958308;28;20038;-69
2024/01/21 05:25:31;;;;;;;4.22;2.70;;;;;;;;;;4967268;28;20046;-69
2024/01/21 05:27:57;;;;;;;3.55;2.40;;;;;;;;;;4964632;28;20267;-69
2024/01/21 05:30:23;;;;;;;5.43;2.67;;;;;;;;;;4965989;28;20046;-69
2024/01/21 05:32:50;;;;;;;6.05;2.63;;;;;;;;;;4951347;28;20097;-69
2024/01/21 05:35:17;;;;;;;4.00;2.63;;;;;;;;;;4975284;28;20061;-69
2024/01/21 05:37:43;;;;;;;4.72;2.70;;;;;;;;;;4950629;28;20050;-69
2024/01/21 05:40:09;;;;;;;5.28;2.80;;;;;;;;;;4950628;28;20374;-69
2024/01/21 05:42:35;;;;;;;7.50;3.40;;;;;;;;;;4953174;28;20046;-69
2024/01/21 05:45:02;;;;;;;6.32;2.72;;;;;;;;;;4967685;28;20525;-69
2024/01/21 05:47:28;;;;;;;4.63;2.80;;;;;;;;;;4966514;28;20665;-69
2024/01/21 05:49:54;;;;;;;6.00;3.25;;;;;;;;;;4955565;28;20038;-69
2024/01/21 05:52:20;;;;;;;6.63;3.47;;;;;;;;;;4966530;28;20557;-69
2024/01/21 05:54:46;;;;;;;5.03;2.80;;;;;;;;;;4967017;28;20101;-69
2024/01/21 05:57:12;;;;;;;7.15;3.92;;;;;;;;;;4966251;28;20049;-69
2024/01/21 05:59:38;;;;;;;7.03;3.60;;;;;;;;;;4964319;28;20050;-69
2024/01/21 06:02:07;;;;;;;7.47;3.38;;;;;;;;;;4953010;28;20512;-69
2024/01/21 06:04:33;;;;;;;7.20;3.70;;;;;;;;;;4967070;28;20059;-69
2024/01/21 06:07:00;;;;;;;6.10;3.28;;;;;;;;;;4961544;28;20129;-69
2024/01/21 06:09:26;;;;;;;5.65;3.55;;;;;;;;;;4950870;28;20336;-69
2024/01/21 06:11:52;;;;;;;8.10;4.20;;;;;;;;;;4957747;28;20046;-69
2024/01/21 06:14:18;;;;;;;7.90;3.58;;;;;;;;;;4950544;28;20078;-69
2024/01/21 06:16:44;;;;;;;8.35;3.88;;;;;;;;;;4950935;28;20499;-69
2024/01/21 06:19:10;;;;;;;8.38;4.20;;;;;;;;;;4949873;28;20073;-69
2024/01/21 06:21:45;;;;;;;7.05;3.83;;;;;;;;;;4950709;28;20046;-69
2024/01/21 06:24:12;;;;;;;8.23;3.95;;;;;;;;;;4950946;28;20039;-69
2024/01/21 06:26:40;;;;;;;8.55;4.47;;;;;;;;;;4976483;28;20073;-69
2024/01/21 06:29:06;;;;;;;7.13;3.35;;;;;;;;;;4954101;28;20055;-69
2024/01/21 06:31:32;;;;;;;7.78;4.10;;;;;;;;;;4951077;29;20051;-69
2024/01/21 06:33:58;;;;;;;8.02;4.00;;;;;;;;;;4934993;29;20437;-69
2024/01/21 06:36:25;;;;;;;7.47;4.40;;;;;;;;;;4954116;28;20039;-69
2024/01/21 06:38:51;;;;;;;8.15;4.50;;;;;;;;;;4955974;28;20053;-69
2024/01/21 06:41:17;;;;;;;6.43;4.32;;;;;;;;;;4969729;28;20043;-69
2024/01/21 06:43:43;;;;;;;11.10;4.32;;;;;;;;;;4960777;28;20378;-69
2024/01/21 06:46:09;;;;;;;7.68;4.60;;;;;;;;;;4954244;28;20050;-69
2024/01/21 06:48:35;;;;;;;8.48;4.65;;;;;;;;;;4954024;28;20045;-69
2024/01/21 06:51:04;;;;;;;8.32;4.47;;;;;;;;;;4937501;28;20047;-69
2024/01/21 06:53:30;;;;;;;7.18;4.05;;;;;;;;;;4953664;28;20051;-69
2024/01/21 06:55:56;;;;;;;7.95;4.45;;;;;;;;;;4964657;28;20282;-69
2024/01/21 06:58:22;;;;;;;9.23;4.40;;;;;;;;;;4969172;28;20348;-69
2024/01/21 07:00:51;;;;;;;7.68;4.47;;;;;;;;;;4969828;28;20043;-69
2024/01/21 07:03:19;;;;;;;8.13;4.60;;;;;;;;;;4964622;28;20069;-69
2024/01/21 07:05:45;;;;;;;7.25;4.78;;;;;;;;;;4985681;28;20062;-69
2024/01/21 07:08:11;;;;;;;11.95;5.57;;;;;;;;;;4953333;28;20034;-70
2024/01/21 07:10:37;;;;;;;8.70;4.93;;;;;;;;;;4953480;28;20490;-70
2024/01/21 07:13:03;;;;;;;10.25;5.50;;;;;;;;;;4953323;28;20046;-70
2024/01/21 07:15:29;;;;;;;8.60;5.18;;;;;;;;;;4960546;28;20047;-70
2024/01/21 07:17:55;;;;;;;9.02;4.55;;;;;;;;;;4968701;28;20050;-70
2024/01/21 07:20:21;;;;;;;9.07;4.75;;;;;;;;;;4968701;28;20593;-70
2024/01/21 07:22:47;;;;;;;9.50;5.28;;;;;;;;;;4954134;28;20122;-70
2024/01/21 07:25:14;;;;;;;9.63;4.68;;;;;;;;;;4953492;28;20035;-70
2024/01/21 07:27:42;;;;;;;9.07;5.03;;;;;;;;;;4977129;28;20046;-70
2024/01/21 07:30:08;;;;;;;9.23;4.95;;;;;;;;;;4952886;28;20051;-70
2024/01/21 07:32:34;;;;;;;8.45;5.10;;;;;;;;;;4952988;28;20041;-70
2024/01/21 07:35:00;;;;;;;8.77;5.28;;;;;;;;;;4953737;28;20047;-70
2024/01/21 07:37:26;;;;;;;8.63;4.70;;;;;;;;;;4952805;28;20053;-70
2024/01/21 07:39:52;;;;;;;9.43;5.28;;;;;;;;;;4969824;28;20105;-70
2024/01/21 07:42:18;;;;;;;9.88;5.38;;;;;;;;;;4953310;28;20466;-70
2024/01/21 07:44:44;;;;;;;7.65;4.50;;;;;;;;;;4952620;28;20050;-70
2024/01/21 07:47:10;;;;;;;9.40;5.53;;;;;;;;;;4957009;28;20276;-70
2024/01/21 07:49:36;;;;;;;7.97;5.03;;;;;;;;;;4959849;28;20130;-70
2024/01/21 07:52:02;;;;;;;11.23;4.95;;;;;;;;;;4969918;28;20035;-70
2024/01/21 07:54:28;;;;;;;7.88;5.22;;;;;;;;;;4969144;28;20082;-70
2024/01/21 07:56:54;;;;;;;7.57;4.97;;;;;;;;;;4969094;28;20035;-69
2024/01/21 07:59:20;;;;;;;8.88;4.63;;;;;;;;;;4968225;28;20097;-69
2024/01/21 08:01:46;;;;;;;9.57;5.13;;;;;;;;;;4968966;28;20042;-69
2024/01/21 08:04:12;;;;;;;8.57;4.95;;;;;;;;;;4968489;28;20417;-69
2024/01/21 08:06:38;;;;;;;9.18;5.20;;;;;;;;;;4968571;28;20034;-69
2024/01/21 08:09:04;;;;;;;12.27;5.78;;;;;;;;;;4954569;28;20480;-69
2024/01/21 08:11:30;;;;;;;10.77;5.15;;;;;;;;;;4956262;28;20046;-69
2024/01/21 08:13:56;;;;;;;8.55;4.40;;;;;;;;;;4952255;28;20055;-69
2024/01/21 08:16:22;;;;;;;8.75;5.82;;;;;;;;;;4951981;28;20050;-69
2024/01/21 08:18:48;;;;;;;8.27;5.35;;;;;;;;;;4952015;28;20073;-70
2024/01/21 08:21:14;;;;;;;9.32;5.30;;;;;;;;;;4952109;28;20050;-70
2024/01/21 08:23:40;;;;;;;8.52;5.53;;;;;;;;;;4958515;28;20124;-70
2024/01/21 08:26:06;;;;;;;8.65;4.70;;;;;;;;;;4964721;28;20034;-70
2024/01/21 08:28:32;;;;;;;8.88;4.35;;;;;;;;;;4952099;28;20047;-70
2024/01/21 08:30:58;;;;;;;10.38;5.25;;;;;;;;;;4951735;28;20042;-70
2024/01/21 08:33:24;;;;;;;11.55;5.70;;;;;;;;;;4968019;28;20174;-70
2024/01/21 08:35:50;;;;;;;9.02;5.00;;;;;;;;;;4967865;28;20137;-70
2024/01/21 08:38:16;;;;;;;8.32;4.85;;;;;;;;;;4968205;28;20047;-70
2024/01/21 08:40:43;;;;;;;10.82;5.95;;;;;;;;;;4953274;28;20050;-70
2024/01/21 08:43:08;;;;;;;9.05;5.32;;;;;;;;;;4983975;28;20413;-70
2024/01/21 08:45:34;;;;;;;7.72;5.05;;;;;;;;;;4968151;28;20034;-70
2024/01/21 08:48:00;;;;;;;8.88;5.70;;;;;;;;;;4958849;28;20525;-70
2024/01/21 08:50:26;;;;;;;7.32;4.80;;;;;;;;;;4951334;28;20133;-70
2024/01/21 08:52:52;;;;;;;10.85;5.40;;;;;;;;;;4951741;28;20524;-70
2024/01/21 08:55:18;;;;;;;8.25;4.85;;;;;;;;;;4967175;28;20094;-70
2024/01/21 08:57:44;;;;;;;8.27;5.38;;;;;;;;;;4952381;28;20644;-70
2024/01/21 09:00:11;;;;;;;9.63;4.53;;;;;;;;;;4951019;28;20394;-70
2024/01/21 09:02:37;;;;;;;9.32;5.22;;;;;;;;;;4951827;28;20035;-70
2024/01/21 09:05:03;;;;;;;9.32;5.72;;;;;;;;;;4931857;29;20061;-70
2024/01/21 09:07:29;;;;;;;10.10;5.53;;;;;;;;;;4958494;28;20101;-70
2024/01/21 09:09:55;;;;;;;9.32;5.55;;;;;;;;;;4953315;28;20078;-70
2024/01/21 09:12:21;;;;;;;9.00;5.05;;;;;;;;;;4951327;28;20589;-70
2024/01/21 09:14:47;;;;;;;8.93;5.25;;;;;;;;;;4951301;28;20138;-70
2024/01/21 09:17:13;;;;;;;9.75;5.38;;;;;;;;;;4953887;28;20494;-70
2024/01/21 09:19:39;;;;;;;7.05;5.05;;;;;;;;;;4955095;28;20078;-70
2024/01/21 09:22:05;;;;;;;10.35;5.75;;;;;;;;;;4953244;28;20046;-70
2024/01/21 09:24:31;;;;;;;10.35;5.82;;;;;;;;;;4955717;28;20043;-70
2024/01/21 09:26:57;;;;;;;9.55;5.90;;;;;;;;;;4950991;28;20109;-70
2024/01/21 09:29:23;;;;;;;11.00;6.00;;;;;;;;;;4951656;28;20485;-70
2024/01/21 09:31:53;;;;;;;9.02;5.38;;;;;;;;;;4950634;28;20035;-70
2024/01/21 09:34:19;;;;;;;9.48;5.82;;;;;;;;;;4967367;28;20043;-70
2024/01/21 09:36:45;;;;;;;10.95;5.63;;;;;;;;;;4950993;28;20047;-70
2024/01/21 09:39:11;;;;;;;11.05;5.63;;;;;;;;;;4950340;28;20070;-70
2024/01/21 09:41:39;;;;;;;8.10;5.50;;;;;;;;;;4982859;28;20093;-70
2024/01/21 09:44:05;;;;;;;8.77;5.63;;;;;;;;;;4958122;28;20564;-70
2024/01/21 09:46:31;;;;;;;9.80;5.57;;;;;;;;;;4966797;28;20181;-70
2024/01/21 09:48:59;;;;;;;11.77;6.28;;;;;;;;;;4953338;28;20125;-70
2024/01/21 09:51:26;;;;;;;11.98;5.45;;;;;;;;;;4950616;28;20046;-70
2024/01/21 09:53:52;;;;;;;9.38;5.90;;;;;;;;;;4950835;28;20121;-71
2024/01/21 09:56:18;;;;;;;9.93;5.40;;;;;;;;;;4959692;28;20452;-70
2024/01/21 09:58:51;;;;;;;9.70;6.25;;;;;;;;;;4966830;28;20619;-70
2024/01/21 10:01:17;;;;;;;9.60;5.30;;;;;;;;;;4966098;28;20039;-70
2024/01/21 10:03:44;;;;;;;11.30;5.70;;;;;;;;;;4955859;28;20047;-70
2024/01/21 10:06:10;;;;;;;9.88;5.90;;;;;;;;;;4931494;29;20054;-70
2024/01/21 10:08:42;;;;;;;9.75;5.88;;;;;;;;;;4929514;28;20039;-70
2024/01/21 10:11:09;;;;;;;11.95;6.63;;;;;;;;;;4950396;28;20058;-70
2024/01/21 10:13:38;;;;;;;10.35;5.72;;;;;;;;;;4950640;28;20077;-70
2024/01/21 10:16:05;;;;;;;8.48;5.60;;;;;;;;;;4950725;28;20509;-70
2024/01/21 10:18:31;;;;;;;10.88;6.00;;;;;;;;;;4950861;28;20437;-70
2024/01/21 10:20:57;;;;;;;9.30;5.47;;;;;;;;;;4949590;28;20043;-70
2024/01/21 10:23:23;;;;;;;11.20;5.88;;;;;;;;;;4950889;28;20039;-70
2024/01/21 10:25:50;;;;;;;12.27;5.32;;;;;;;;;;4964025;28;20035;-70
2024/01/21 10:28:17;;;;;;;8.05;5.72;;;;;;;;;;4950712;28;20038;-70
2024/01/21 10:30:44;;;;;;;10.82;6.55;;;;;;;;;;4982192;28;20046;-70
2024/01/21 10:33:10;;;;;;;9.73;5.90;;;;;;;;;;4967721;28;20125;-70
2024/01/21 10:35:36;;;;;;;10.95;6.20;;;;;;;;;;4951986;28;20047;-70
2024/01/21 10:38:02;;;;;;;10.95;5.60;;;;;;;;;;4966693;28;20038;-70
2024/01/21 10:40:29;;;;;;;10.85;6.20;;;;;;;;;;4956643;28;20126;-70
2024/01/21 10:42:59;;;;;;;9.07;5.75;;;;;;;;;;4950715;28;20050;-70
2024/01/21 10:45:26;;;;;;;11.57;6.30;;;;;;;;;;4946937;29;20079;-70
2024/01/21 10:47:52;;;;;;;10.85;6.05;;;;;;;;;;4938619;28;20042;-70
2024/01/21 10:50:20;;;;;;;8.57;6.18;;;;;;;;;;4950330;28;20522;-70
2024/01/21 10:52:48;;;;;;;12.25;6.28;;;;;;;;;;4960400;28;20106;-70
2024/01/21 10:55:14;;;;;;;10.15;6.45;;;;;;;;;;4966599;28;20046;-70
2024/01/21 10:57:40;;;;;;;10.82;6.28;;;;;;;;;;4950160;28;20053;-70
2024/01/21 11:00:09;;;;;;;11.25;6.82;;;;;;;;;;4954932;28;20057;-70
2024/01/21 11:02:35;;;;;;;9.80;6.18;;;;;;;;;;4966246;28;20051;-70
2024/01/21 11:05:01;;;;;;;8.50;6.20;;;;;;;;;;4934451;29;20052;-70
2024/01/21 11:07:27;;;;;;;10.35;6.20;;;;;;;;;;4933876;28;20089;-70
2024/01/21 11:09:57;;;;;;;11.43;6.07;;;;;;;;;;4952362;28;20063;-70
2024/01/21 11:12:23;;;;;;;11.15;6.05;;;;;;;;;;4958143;28;20054;-70
2024/01/21 11:14:49;;;;;;;10.38;6.20;;;;;;;;;;4969747;28;20501;-70
2024/01/21 11:17:21;;;;;;;10.77;6.80;;;;;;;;;;4955531;28;20051;-70
2024/01/21 11:19:51;;;;;;;11.82;6.55;;;;;;;;;;4983367;28;20123;-70
2024/01/21 11:22:20;;;;;;;10.98;6.20;;;;;;;;;;4934109;29;20094;-70
2024/01/21 11:24:46;;;;;;;9.70;6.20;;;;;;;;;;4947448;28;20039;-70
2024/01/21 11:27:18;;;;;;;12.43;6.65;;;;;;;;;;4955946;28;20042;-70
2024/01/21 11:29:44;;;;;;;12.40;6.75;;;;;;;;;;4969690;28;20051;-70
2024/01/21 11:32:11;;;;;;;10.73;6.95;;;;;;;;;;4969146;28;20469;-70
2024/01/21 11:34:38;;;;;;;9.52;5.80;;;;;;;;;;4953089;28;20049;-70
2024/01/21 11:37:05;;;;;;;11.57;6.85;;;;;;;;;;4957377;28;20049;-70
2024/01/21 11:39:31;;;;;;;10.43;5.72;;;;;;;;;;4952788;28;20298;-70
2024/01/21 11:41:57;;;;;;;12.88;6.72;;;;;;;;;;4952684;28;20105;-70
2024/01/21 11:44:24;;;;;;;11.23;5.60;;;;;;;;;;4952838;28;20179;-71
2024/01/21 11:46:50;;;;;;;12.73;6.80;;;;;;;;;;4953057;28;20552;-71
2024/01/21 11:49:17;;;;;;;10.52;6.57;;;;;;;;;;4959968;28;20066;-71
2024/01/21 11:51:44;;;;;;;11.50;6.95;;;;;;;;;;4952043;28;20129;-71
2024/01/21 11:54:11;;;;;;;13.52;6.85;;;;;;;;;;4953244;28;20055;-71
2024/01/21 11:56:39;;;;;;;13.70;7.00;;;;;;;;;;4952360;28;20461;-71
2024/01/21 11:59:06;;;;;;;13.90;7.07;;;;;;;;;;4984927;28;20092;-71
2024/01/21 12:01:33;;;;;;;12.20;7.43;;;;;;;;;;4966957;28;20038;-71
2024/01/21 12:04:00;;;;;;;10.30;6.22;;;;;;;;;;4966105;28;20043;-71
2024/01/21 12:06:27;;;;;;;10.85;6.60;;;;;;;;;;4952018;28;20461;-71
2024/01/21 12:08:53;;;;;;;13.75;7.25;;;;;;;;;;4952764;28;20092;-70
2024/01/21 12:11:19;;;;;;;11.43;6.72;;;;;;;;;;4952145;28;20038;-70
2024/01/21 12:13:45;;;;;;;11.82;7.47;;;;;;;;;;4968153;28;20054;-70
2024/01/21 12:16:11;;;;;;;12.68;6.88;;;;;;;;;;4964877;28;20094;-70
2024/01/21 12:18:41;;;;;;;11.65;6.82;;;;;;;;;;4952764;28;20461;-70
2024/01/21 12:21:07;;;;;;;14.52;7.95;;;;;;;;;;4970092;28;20144;-70
2024/01/21 12:23:35;;;;;;;14.25;7.43;;;;;;;;;;4967624;28;20046;-70
2024/01/21 12:26:01;;;;;;;12.80;7.60;;;;;;;;;;4980885;28;20039;-70
2024/01/21 12:28:27;;;;;;;15.13;7.60;;;;;;;;;;4952267;28;20441;-70
2024/01/21 12:30:54;;;;;;;11.25;6.95;;;;;;;;;;4951713;28;20047;-70
2024/01/21 12:33:20;;;;;;;11.68;7.07;;;;;;;;;;4971163;28;20105;-70
2024/01/21 12:35:47;;;;;;;10.70;7.05;;;;;;;;;;4954487;28;20127;-70
2024/01/21 12:38:15;;;;;;;10.38;7.03;;;;;;;;;;4951942;28;20556;-70
2024/01/21 12:40:42;;;;;;;14.60;8.20;;;;;;;;;;4968237;28;20472;-70
2024/01/21 12:43:09;;;;;;;13.30;7.85;;;;;;;;;;4967636;28;20122;-70
2024/01/21 12:45:36;;;;;;;14.00;7.40;;;;;;;;;;4953867;28;20047;-70
2024/01/21 12:48:02;;;;;;;11.50;7.43;;;;;;;;;;4948735;28;20402;-70
2024/01/21 12:50:28;;;;;;;16.10;7.47;;;;;;;;;;4966699;28;20043;-70
2024/01/21 12:52:55;;;;;;;12.57;7.88;;;;;;;;;;4959103;28;20043;-70
2024/01/21 12:55:22;;;;;;;13.15;7.82;;;;;;;;;;4966351;28;20038;-70
2024/01/21 12:57:48;;;;;;;17.15;8.38;;;;;;;;;;4951098;28;20043;-71
2024/01/21 13:00:14;;;;;;;12.80;7.43;;;;;;;;;;4949792;28;20043;-70
2024/01/21 13:02:41;;;;;;;13.77;8.05;;;;;;;;;;4949932;28;20039;-70
2024/01/21 13:05:07;;;;;;;13.48;6.95;;;;;;;;;;4959906;28;20383;-70
2024/01/21 13:07:33;;;;;;;12.60;7.32;;;;;;;;;;4953101;28;20043;-70
2024/01/21 13:09:59;;;;;;;11.32;8.15;;;;;;;;;;4935711;28;20098;-70
2024/01/21 13:12:27;;;;;;;15.05;8.35;;;;;;;;;;4947543;28;20046;-70
2024/01/21 13:14:53;;;;;;;12.05;8.15;;;;;;;;;;4950967;28;20472;-70
2024/01/21 13:17:18;;;;;;;15.15;7.75;;;;;;;;;;4956192;28;20047;-70
2024/01/21 13:19:44;;;;;;;15.45;8.30;;;;;;;;;;4950662;28;20154;-70
2024/01/21 13:22:10;;;;;;;13.48;7.47;;;;;;;;;;4951250;28;20030;-70
2024/01/21 13:24:36;;;;;;;17.30;8.77;;;;;;;;;;4955885;28;20078;-70
2024/01/21 13:27:09;;;;;;;13.60;7.90;;;;;;;;;;4953433;28;20047;-70
2024/01/21 13:32:23;;;;;;;17.85;9.23;;;;;;;;;;4949422;28;20462;-70
2024/01/21 13:34:49;;;;;;;16.83;8.05;;;;;;;;;;4948314;28;20050;-70
2024/01/21 13:37:15;;;;;;;18.25;8.52;;;;;;;;;;4959806;28;20097;-70
2024/01/21 13:39:41;;;;;;;14.18;8.13;;;;;;;;;;4965313;28;20034;-70
2024/01/21 13:42:07;;;;;;;15.27;8.65;;;;;;;;;;4950881;28;20074;-70
2024/01/21 13:44:34;;;;;;;19.50;8.63;;;;;;;;;;4950766;28;20402;-70
2024/01/21 13:47:00;;;;;;;17.23;9.02;;;;;;;;;;4950635;28;20073;-70
2024/01/21 13:49:25;;;;;;;17.35;8.13;;;;;;;;;;4954328;28;20575;-70
2024/01/21 13:51:52;;;;;;;16.02;8.82;;;;;;;;;;4951115;28;20042;-70
2024/01/21 13:54:18;;;;;;;19.65;8.07;;;;;;;;;;4966300;28;20047;-70
2024/01/21 13:56:46;;;;;;;10.10;7.18;;;;;;;;;;4942683;29;20083;-70
2024/01/21 13:59:12;;;;;;;17.48;8.82;;;;;;;;;;4963866;28;20134;-70
2024/01/21 14:01:38;;;;;;;13.80;8.13;;;;;;;;;;4963012;28;20053;-70
2024/01/21 14:04:04;;;;;;;18.25;7.97;;;;;;;;;;4950541;28;20525;-70
2024/01/21 14:06:30;;;;;;;15.63;8.45;;;;;;;;;;4966370;28;20070;-70
2024/01/21 14:08:56;;;;;;;15.85;7.57;;;;;;;;;;4960901;28;20140;-70
2024/01/21 14:11:22;;;;;;;14.15;8.65;;;;;;;;;;4950834;28;20089;-70
2024/01/21 14:13:48;;;;;;;15.23;8.05;;;;;;;;;;4963225;28;20043;-70
2024/01/21 14:16:14;;;;;;;14.90;7.68;;;;;;;;;;4966420;28;20053;-70
2024/01/21 14:18:40;;;;;;;16.90;8.52;;;;;;;;;;4966812;28;20043;-70
2024/01/21 14:21:06;;;;;;;15.32;8.02;;;;;;;;;;4958840;28;20098;-70
2024/01/21 14:23:32;;;;;;;16.63;8.35;;;;;;;;;;4950465;28;20429;-70
2024/01/21 14:26:06;;;;;;;16.40;8.00;;;;;;;;;;4950243;28;20031;-70
2024/01/21 14:28:35;;;;;;;12.55;7.85;;;;;;;;;;4952970;28;20231;-70
2024/01/21 14:31:01;;;;;;;14.57;8.38;;;;;;;;;;4966829;28;20042;-70
2024/01/21 14:33:27;;;;;;;17.80;7.97;;;;;;;;;;4956060;28;20400;-70